sensor_id;sensor_type;location;lat;lon;timestamp;P1;durP1;ratioP1;P2;durP2;ratioP2
8040;SDS011;4063;48.140;10.250;2024-03-22T00:01:42;39.53;;;26.93;;
8040;SDS011;4063;48.140;10.250;2024-03-22T00:04:08;36.07;;;25.93;;
8040;SDS011;4063;48.140;10.250;2024-03-22T00:06:34;35.87;;;25.77;;
8040;SDS011;4063;48.140;10.250;2024-03-22T00:09:00;35.27;;;25.67;;
8040;SDS011;4063;48.140;10.250;2024-03-22T00:11:28;34.63;;;25.67;;
8040;SDS011;4063;48.140;10.250;2024-03-22T00:13:54;31.20;;;24.03;;
8040;SDS011;4063;48.140;10.250;2024-03-22T00:16:20;33.07;;;25.17;;
8040;SDS011;4063;48.140;10.250;2024-03-22T00:18:46;31.87;;;24.17;;
8040;SDS011;4063;48.140;10.250;2024-03-22T00:21:12;35.17;;;24.37;;
8040;SDS011;4063;48.140;10.250;2024-03-22T00:23:38;35.33;;;25.40;;
8040;SDS011;4063;48.140;10.250;2024-03-22T00:26:04;35.03;;;24.40;;
8040;SDS011;4063;48.140;10.250;2024-03-22T00:28:30;36.63;;;24.67;;
8040;SDS011;4063;48.140;10.250;2024-03-22T00:30:56;37.00;;;23.27;;
8040;SDS011;4063;48.140;10.250;2024-03-22T00:33:22;35.97;;;24.10;;
8040;SDS011;4063;48.140;10.250;2024-03-22T00:35:47;32.80;;;24.77;;
8040;SDS011;4063;48.140;10.250;2024-03-22T00:38:13;31.10;;;24.07;;
8040;SDS011;4063;48.140;10.250;2024-03-22T00:40:39;31.53;;;24.50;;
8040;SDS011;4063;48.140;10.250;2024-03-22T00:43:06;32.33;;;24.03;;
8040;SDS011;4063;48.140;10.250;2024-03-22T00:45:32;33.07;;;25.20;;
8040;SDS011;4063;48.140;10.250;2024-03-22T00:47:57;38.37;;;25.23;;
8040;SDS011;4063;48.140;10.250;2024-03-22T00:50:23;35.57;;;24.93;;
8040;SDS011;4063;48.140;10.250;2024-03-22T00:52:53;34.17;;;23.83;;
8040;SDS011;4063;48.140;10.250;2024-03-22T00:55:23;39.70;;;24.17;;
8040;SDS011;4063;48.140;10.250;2024-03-22T00:57:49;32.20;;;23.17;;
8040;SDS011;4063;48.140;10.250;2024-03-22T01:00:15;33.70;;;23.97;;
8040;SDS011;4063;48.140;10.250;2024-03-22T01:02:41;32.20;;;24.63;;
8040;SDS011;4063;48.140;10.250;2024-03-22T01:05:07;36.47;;;23.03;;
8040;SDS011;4063;48.140;10.250;2024-03-22T01:07:33;33.40;;;24.20;;
8040;SDS011;4063;48.140;10.250;2024-03-22T01:09:59;32.17;;;23.13;;
8040;SDS011;4063;48.140;10.250;2024-03-22T01:12:25;33.07;;;23.43;;
8040;SDS011;4063;48.140;10.250;2024-03-22T01:14:51;32.63;;;23.97;;
8040;SDS011;4063;48.140;10.250;2024-03-22T01:17:17;36.47;;;24.93;;
8040;SDS011;4063;48.140;10.250;2024-03-22T01:19:43;35.67;;;24.00;;
8040;SDS011;4063;48.140;10.250;2024-03-22T01:22:11;35.33;;;24.57;;
8040;SDS011;4063;48.140;10.250;2024-03-22T01:24:36;33.70;;;23.93;;
8040;SDS011;4063;48.140;10.250;2024-03-22T01:27:02;30.20;;;23.27;;
8040;SDS011;4063;48.140;10.250;2024-03-22T01:29:29;31.10;;;24.07;;
8040;SDS011;4063;48.140;10.250;2024-03-22T01:31:57;37.30;;;25.03;;
8040;SDS011;4063;48.140;10.250;2024-03-22T01:34:27;33.37;;;25.33;;
8040;SDS011;4063;48.140;10.250;2024-03-22T01:36:53;29.90;;;22.37;;
8040;SDS011;4063;48.140;10.250;2024-03-22T01:39:20;33.43;;;24.40;;
8040;SDS011;4063;48.140;10.250;2024-03-22T01:41:46;32.50;;;23.93;;
8040;SDS011;4063;48.140;10.250;2024-03-22T01:44:12;33.60;;;24.80;;
8040;SDS011;4063;48.140;10.250;2024-03-22T01:46:39;34.90;;;24.33;;
8040;SDS011;4063;48.140;10.250;2024-03-22T01:49:05;34.13;;;23.97;;
8040;SDS011;4063;48.140;10.250;2024-03-22T01:51:31;38.13;;;23.73;;
8040;SDS011;4063;48.140;10.250;2024-03-22T01:53:57;34.77;;;24.80;;
8040;SDS011;4063;48.140;10.250;2024-03-22T01:56:24;36.53;;;24.87;;
8040;SDS011;4063;48.140;10.250;2024-03-22T01:58:50;36.50;;;24.27;;
8040;SDS011;4063;48.140;10.250;2024-03-22T02:01:16;31.77;;;23.57;;
8040;SDS011;4063;48.140;10.250;2024-03-22T02:03:42;35.63;;;24.77;;
8040;SDS011;4063;48.140;10.250;2024-03-22T02:06:08;31.73;;;23.53;;
8040;SDS011;4063;48.140;10.250;2024-03-22T02:08:35;37.63;;;23.07;;
8040;SDS011;4063;48.140;10.250;2024-03-22T02:11:01;30.13;;;22.90;;
8040;SDS011;4063;48.140;10.250;2024-03-22T02:13:27;32.30;;;23.13;;
8040;SDS011;4063;48.140;10.250;2024-03-22T02:15:53;36.37;;;24.00;;
8040;SDS011;4063;48.140;10.250;2024-03-22T02:18:19;30.10;;;23.40;;
8040;SDS011;4063;48.140;10.250;2024-03-22T02:20:45;34.20;;;22.13;;
8040;SDS011;4063;48.140;10.250;2024-03-22T02:23:10;34.43;;;23.93;;
8040;SDS011;4063;48.140;10.250;2024-03-22T02:25:36;34.07;;;23.20;;
8040;SDS011;4063;48.140;10.250;2024-03-22T02:28:02;32.53;;;22.77;;
8040;SDS011;4063;48.140;10.250;2024-03-22T02:30:29;38.47;;;23.90;;
8040;SDS011;4063;48.140;10.250;2024-03-22T02:32:54;34.50;;;22.97;;
8040;SDS011;4063;48.140;10.250;2024-03-22T02:35:20;34.50;;;22.73;;
8040;SDS011;4063;48.140;10.250;2024-03-22T02:37:47;36.43;;;25.23;;
8040;SDS011;4063;48.140;10.250;2024-03-22T02:40:13;35.23;;;23.93;;
8040;SDS011;4063;48.140;10.250;2024-03-22T02:42:38;33.53;;;23.17;;
8040;SDS011;4063;48.140;10.250;2024-03-22T02:45:04;32.97;;;22.60;;
8040;SDS011;4063;48.140;10.250;2024-03-22T02:47:30;33.07;;;23.10;;
8040;SDS011;4063;48.140;10.250;2024-03-22T02:49:56;31.47;;;21.53;;
8040;SDS011;4063;48.140;10.250;2024-03-22T02:52:22;30.80;;;21.40;;
8040;SDS011;4063;48.140;10.250;2024-03-22T02:54:48;29.83;;;21.37;;
8040;SDS011;4063;48.140;10.250;2024-03-22T02:57:14;27.43;;;21.27;;
8040;SDS011;4063;48.140;10.250;2024-03-22T02:59:40;31.40;;;21.67;;
8040;SDS011;4063;48.140;10.250;2024-03-22T03:02:06;28.80;;;21.33;;
8040;SDS011;4063;48.140;10.250;2024-03-22T03:04:34;30.10;;;21.70;;
8040;SDS011;4063;48.140;10.250;2024-03-22T03:07:00;30.43;;;21.57;;
8040;SDS011;4063;48.140;10.250;2024-03-22T03:09:26;28.87;;;21.13;;
8040;SDS011;4063;48.140;10.250;2024-03-22T03:11:52;30.67;;;21.57;;
8040;SDS011;4063;48.140;10.250;2024-03-22T03:14:18;28.40;;;20.57;;
8040;SDS011;4063;48.140;10.250;2024-03-22T03:16:44;32.40;;;22.77;;
8040;SDS011;4063;48.140;10.250;2024-03-22T03:19:10;28.67;;;21.30;;
8040;SDS011;4063;48.140;10.250;2024-03-22T03:21:36;35.53;;;21.70;;
8040;SDS011;4063;48.140;10.250;2024-03-22T03:24:02;28.13;;;21.53;;
8040;SDS011;4063;48.140;10.250;2024-03-22T03:26:29;29.47;;;22.13;;
8040;SDS011;4063;48.140;10.250;2024-03-22T03:28:55;32.97;;;20.60;;
8040;SDS011;4063;48.140;10.250;2024-03-22T03:31:23;27.13;;;20.90;;
8040;SDS011;4063;48.140;10.250;2024-03-22T03:33:49;28.90;;;21.23;;
8040;SDS011;4063;48.140;10.250;2024-03-22T03:36:15;25.73;;;19.93;;
8040;SDS011;4063;48.140;10.250;2024-03-22T03:38:41;29.13;;;21.97;;
8040;SDS011;4063;48.140;10.250;2024-03-22T03:41:07;31.73;;;21.17;;
8040;SDS011;4063;48.140;10.250;2024-03-22T03:43:33;30.63;;;21.03;;
8040;SDS011;4063;48.140;10.250;2024-03-22T03:45:59;27.63;;;19.50;;
8040;SDS011;4063;48.140;10.250;2024-03-22T03:48:25;28.57;;;20.30;;
8040;SDS011;4063;48.140;10.250;2024-03-22T03:50:54;23.47;;;16.30;;
8040;SDS011;4063;48.140;10.250;2024-03-22T03:53:24;23.77;;;17.67;;
8040;SDS011;4063;48.140;10.250;2024-03-22T03:55:49;23.37;;;16.97;;
8040;SDS011;4063;48.140;10.250;2024-03-22T03:58:15;22.77;;;18.10;;
8040;SDS011;4063;48.140;10.250;2024-03-22T04:00:43;29.43;;;17.60;;
8040;SDS011;4063;48.140;10.250;2024-03-22T04:03:09;22.90;;;18.93;;
8040;SDS011;4063;48.140;10.250;2024-03-22T04:05:35;26.10;;;17.73;;
8040;SDS011;4063;48.140;10.250;2024-03-22T04:08:01;28.27;;;20.43;;
8040;SDS011;4063;48.140;10.250;2024-03-22T04:10:27;26.30;;;19.37;;
8040;SDS011;4063;48.140;10.250;2024-03-22T04:12:53;32.63;;;21.98;;
8040;SDS011;4063;48.140;10.250;2024-03-22T04:15:19;32.57;;;22.10;;
8040;SDS011;4063;48.140;10.250;2024-03-22T04:17:45;39.07;;;21.93;;
8040;SDS011;4063;48.140;10.250;2024-03-22T04:20:11;29.30;;;21.13;;
8040;SDS011;4063;48.140;10.250;2024-03-22T04:22:37;37.90;;;22.17;;
8040;SDS011;4063;48.140;10.250;2024-03-22T04:25:03;29.33;;;20.93;;
8040;SDS011;4063;48.140;10.250;2024-03-22T04:27:29;32.43;;;20.30;;
8040;SDS011;4063;48.140;10.250;2024-03-22T04:29:55;38.67;;;21.67;;
8040;SDS011;4063;48.140;10.250;2024-03-22T04:32:21;30.53;;;21.27;;
8040;SDS011;4063;48.140;10.250;2024-03-22T04:34:47;34.97;;;20.90;;
8040;SDS011;4063;48.140;10.250;2024-03-22T04:37:13;30.27;;;19.77;;
8040;SDS011;4063;48.140;10.250;2024-03-22T04:39:42;33.90;;;22.37;;
8040;SDS011;4063;48.140;10.250;2024-03-22T04:42:11;31.97;;;20.80;;
8040;SDS011;4063;48.140;10.250;2024-03-22T04:44:37;29.93;;;20.13;;
8040;SDS011;4063;48.140;10.250;2024-03-22T04:47:03;30.27;;;20.43;;
8040;SDS011;4063;48.140;10.250;2024-03-22T04:49:29;49.83;;;31.17;;
8040;SDS011;4063;48.140;10.250;2024-03-22T04:51:56;40.63;;;24.10;;
8040;SDS011;4063;48.140;10.250;2024-03-22T04:54:22;34.00;;;22.47;;
8040;SDS011;4063;48.140;10.250;2024-03-22T04:56:48;38.67;;;22.23;;
8040;SDS011;4063;48.140;10.250;2024-03-22T04:59:13;29.57;;;21.47;;
8040;SDS011;4063;48.140;10.250;2024-03-22T05:01:39;31.20;;;21.80;;
8040;SDS011;4063;48.140;10.250;2024-03-22T05:04:05;33.93;;;21.87;;
8040;SDS011;4063;48.140;10.250;2024-03-22T05:06:31;32.50;;;21.90;;
8040;SDS011;4063;48.140;10.250;2024-03-22T05:08:57;31.27;;;20.73;;
8040;SDS011;4063;48.140;10.250;2024-03-22T05:11:23;32.07;;;22.00;;
8040;SDS011;4063;48.140;10.250;2024-03-22T05:13:49;33.80;;;21.90;;
8040;SDS011;4063;48.140;10.250;2024-03-22T05:16:15;29.97;;;21.60;;
8040;SDS011;4063;48.140;10.250;2024-03-22T05:18:41;30.77;;;21.30;;
8040;SDS011;4063;48.140;10.250;2024-03-22T05:21:08;29.70;;;18.80;;
8040;SDS011;4063;48.140;10.250;2024-03-22T05:23:36;28.80;;;19.70;;
8040;SDS011;4063;48.140;10.250;2024-03-22T05:26:03;29.07;;;20.60;;
8040;SDS011;4063;48.140;10.250;2024-03-22T05:28:29;30.97;;;20.03;;
8040;SDS011;4063;48.140;10.250;2024-03-22T05:30:55;27.80;;;19.83;;
8040;SDS011;4063;48.140;10.250;2024-03-22T05:33:21;29.93;;;21.50;;
8040;SDS011;4063;48.140;10.250;2024-03-22T05:35:51;30.13;;;20.37;;
8040;SDS011;4063;48.140;10.250;2024-03-22T05:38:17;30.50;;;20.13;;
8040;SDS011;4063;48.140;10.250;2024-03-22T05:40:42;33.07;;;20.90;;
8040;SDS011;4063;48.140;10.250;2024-03-22T05:43:11;29.73;;;20.67;;
8040;SDS011;4063;48.140;10.250;2024-03-22T05:45:37;33.00;;;20.80;;
8040;SDS011;4063;48.140;10.250;2024-03-22T05:48:03;31.13;;;20.33;;
8040;SDS011;4063;48.140;10.250;2024-03-22T05:50:29;27.43;;;20.40;;
8040;SDS011;4063;48.140;10.250;2024-03-22T05:52:55;29.83;;;21.87;;
8040;SDS011;4063;48.140;10.250;2024-03-22T05:55:21;29.27;;;20.43;;
8040;SDS011;4063;48.140;10.250;2024-03-22T05:57:47;33.17;;;22.20;;
8040;SDS011;4063;48.140;10.250;2024-03-22T06:00:13;32.77;;;21.80;;
8040;SDS011;4063;48.140;10.250;2024-03-22T06:02:39;29.10;;;20.50;;
8040;SDS011;4063;48.140;10.250;2024-03-22T06:05:05;27.97;;;20.27;;
8040;SDS011;4063;48.140;10.250;2024-03-22T06:07:31;28.83;;;20.53;;
8040;SDS011;4063;48.140;10.250;2024-03-22T06:10:05;26.93;;;19.33;;
8040;SDS011;4063;48.140;10.250;2024-03-22T06:12:31;25.80;;;19.17;;
8040;SDS011;4063;48.140;10.250;2024-03-22T06:14:57;26.10;;;19.40;;
8040;SDS011;4063;48.140;10.250;2024-03-22T06:17:23;30.73;;;20.03;;
8040;SDS011;4063;48.140;10.250;2024-03-22T06:19:49;27.23;;;19.30;;
8040;SDS011;4063;48.140;10.250;2024-03-22T06:22:15;25.77;;;18.93;;
8040;SDS011;4063;48.140;10.250;2024-03-22T06:24:41;23.33;;;16.67;;
8040;SDS011;4063;48.140;10.250;2024-03-22T06:27:07;25.90;;;19.23;;
8040;SDS011;4063;48.140;10.250;2024-03-22T06:29:34;24.40;;;17.47;;
8040;SDS011;4063;48.140;10.250;2024-03-22T06:32:00;21.87;;;16.97;;
8040;SDS011;4063;48.140;10.250;2024-03-22T06:34:26;25.80;;;18.17;;
8040;SDS011;4063;48.140;10.250;2024-03-22T06:36:51;24.13;;;17.57;;
8040;SDS011;4063;48.140;10.250;2024-03-22T06:39:17;22.90;;;17.27;;
8040;SDS011;4063;48.140;10.250;2024-03-22T06:41:44;23.47;;;16.73;;
8040;SDS011;4063;48.140;10.250;2024-03-22T06:44:11;26.70;;;17.70;;
8040;SDS011;4063;48.140;10.250;2024-03-22T06:46:39;22.83;;;16.67;;
8040;SDS011;4063;48.140;10.250;2024-03-22T06:49:05;20.50;;;16.47;;
8040;SDS011;4063;48.140;10.250;2024-03-22T06:51:31;22.67;;;16.97;;
8040;SDS011;4063;48.140;10.250;2024-03-22T06:53:58;22.63;;;16.13;;
8040;SDS011;4063;48.140;10.250;2024-03-22T06:56:24;24.73;;;19.20;;
8040;SDS011;4063;48.140;10.250;2024-03-22T06:58:51;30.73;;;19.37;;
8040;SDS011;4063;48.140;10.250;2024-03-22T07:01:17;28.17;;;20.90;;
8040;SDS011;4063;48.140;10.250;2024-03-22T07:03:42;34.17;;;23.10;;
8040;SDS011;4063;48.140;10.250;2024-03-22T07:06:10;30.80;;;20.47;;
8040;SDS011;4063;48.140;10.250;2024-03-22T07:08:36;33.77;;;19.83;;
8040;SDS011;4063;48.140;10.250;2024-03-22T07:11:06;26.90;;;18.77;;
8040;SDS011;4063;48.140;10.250;2024-03-22T07:13:32;22.23;;;16.10;;
8040;SDS011;4063;48.140;10.250;2024-03-22T07:15:58;23.50;;;16.27;;
8040;SDS011;4063;48.140;10.250;2024-03-22T07:18:24;44.40;;;26.30;;
8040;SDS011;4063;48.140;10.250;2024-03-22T07:20:50;41.03;;;24.77;;
8040;SDS011;4063;48.140;10.250;2024-03-22T07:23:16;39.10;;;26.27;;
8040;SDS011;4063;48.140;10.250;2024-03-22T07:25:42;26.77;;;18.00;;
8040;SDS011;4063;48.140;10.250;2024-03-22T07:28:10;20.13;;;13.47;;
8040;SDS011;4063;48.140;10.250;2024-03-22T07:30:36;12.33;;;10.70;;
8040;SDS011;4063;48.140;10.250;2024-03-22T07:33:02;10.43;;;8.57;;
8040;SDS011;4063;48.140;10.250;2024-03-22T07:35:28;10.50;;;7.27;;
8040;SDS011;4063;48.140;10.250;2024-03-22T07:37:54;11.13;;;7.90;;
8040;SDS011;4063;48.140;10.250;2024-03-22T07:40:20;10.40;;;7.67;;
8040;SDS011;4063;48.140;10.250;2024-03-22T07:42:46;9.93;;;7.57;;
8040;SDS011;4063;48.140;10.250;2024-03-22T07:45:12;10.07;;;7.27;;
8040;SDS011;4063;48.140;10.250;2024-03-22T07:47:38;8.60;;;7.70;;
8040;SDS011;4063;48.140;10.250;2024-03-22T07:50:07;7.50;;;6.57;;
8040;SDS011;4063;48.140;10.250;2024-03-22T07:52:33;12.03;;;7.07;;
8040;SDS011;4063;48.140;10.250;2024-03-22T07:54:59;9.07;;;6.47;;
8040;SDS011;4063;48.140;10.250;2024-03-22T07:57:27;8.43;;;6.40;;
8040;SDS011;4063;48.140;10.250;2024-03-22T07:59:55;7.23;;;6.07;;
8040;SDS011;4063;48.140;10.250;2024-03-22T08:02:21;7.87;;;6.20;;
8040;SDS011;4063;48.140;10.250;2024-03-22T08:04:47;7.97;;;6.03;;
8040;SDS011;4063;48.140;10.250;2024-03-22T08:07:14;6.40;;;5.03;;
8040;SDS011;4063;48.140;10.250;2024-03-22T08:09:40;5.77;;;5.27;;
8040;SDS011;4063;48.140;10.250;2024-03-22T08:12:06;9.37;;;5.57;;
8040;SDS011;4063;48.140;10.250;2024-03-22T08:14:32;6.40;;;5.60;;
8040;SDS011;4063;48.140;10.250;2024-03-22T08:16:58;6.60;;;5.83;;
8040;SDS011;4063;48.140;10.250;2024-03-22T08:19:24;9.50;;;5.93;;
8040;SDS011;4063;48.140;10.250;2024-03-22T08:21:50;6.87;;;5.23;;
8040;SDS011;4063;48.140;10.250;2024-03-22T08:24:17;7.43;;;5.13;;
8040;SDS011;4063;48.140;10.250;2024-03-22T08:26:43;6.83;;;5.50;;
8040;SDS011;4063;48.140;10.250;2024-03-22T08:29:11;5.30;;;4.80;;
8040;SDS011;4063;48.140;10.250;2024-03-22T08:31:38;6.63;;;5.03;;
8040;SDS011;4063;48.140;10.250;2024-03-22T08:34:03;7.43;;;5.73;;
8040;SDS011;4063;48.140;10.250;2024-03-22T08:36:30;6.63;;;5.10;;
8040;SDS011;4063;48.140;10.250;2024-03-22T08:38:56;7.00;;;5.30;;
8040;SDS011;4063;48.140;10.250;2024-03-22T08:41:22;6.63;;;5.03;;
8040;SDS011;4063;48.140;10.250;2024-03-22T08:43:48;8.90;;;5.07;;
8040;SDS011;4063;48.140;10.250;2024-03-22T08:46:14;6.37;;;4.70;;
8040;SDS011;4063;48.140;10.250;2024-03-22T08:48:40;7.07;;;4.80;;
8040;SDS011;4063;48.140;10.250;2024-03-22T08:51:06;9.83;;;4.90;;
8040;SDS011;4063;48.140;10.250;2024-03-22T08:53:32;7.67;;;4.93;;
8040;SDS011;4063;48.140;10.250;2024-03-22T08:55:58;6.23;;;4.83;;
8040;SDS011;4063;48.140;10.250;2024-03-22T08:58:24;7.40;;;4.60;;
8040;SDS011;4063;48.140;10.250;2024-03-22T09:00:50;6.93;;;4.60;;
8040;SDS011;4063;48.140;10.250;2024-03-22T09:03:16;6.90;;;4.33;;
8040;SDS011;4063;48.140;10.250;2024-03-22T09:05:43;6.00;;;4.63;;
8040;SDS011;4063;48.140;10.250;2024-03-22T09:08:09;7.15;;;4.70;;
8040;SDS011;4063;48.140;10.250;2024-03-22T09:10:35;6.05;;;4.57;;
8040;SDS011;4063;48.140;10.250;2024-03-22T09:13:01;10.05;;;4.45;;
8040;SDS011;4063;48.140;10.250;2024-03-22T09:15:27;8.77;;;4.90;;
8040;SDS011;4063;48.140;10.250;2024-03-22T09:17:53;7.43;;;4.85;;
8040;SDS011;4063;48.140;10.250;2024-03-22T09:20:19;9.75;;;5.00;;
8040;SDS011;4063;48.140;10.250;2024-03-22T09:22:45;6.47;;;3.97;;
8040;SDS011;4063;48.140;10.250;2024-03-22T09:25:11;6.57;;;4.35;;
8040;SDS011;4063;48.140;10.250;2024-03-22T09:27:37;5.10;;;4.43;;
8040;SDS011;4063;48.140;10.250;2024-03-22T09:30:04;5.25;;;4.03;;
8040;SDS011;4063;48.140;10.250;2024-03-22T09:32:30;4.95;;;4.03;;
8040;SDS011;4063;48.140;10.250;2024-03-22T09:34:56;6.05;;;3.70;;
8040;SDS011;4063;48.140;10.250;2024-03-22T09:37:22;4.97;;;4.45;;
8040;SDS011;4063;48.140;10.250;2024-03-22T09:39:48;6.03;;;4.65;;
8040;SDS011;4063;48.140;10.250;2024-03-22T09:42:17;7.00;;;4.25;;
8040;SDS011;4063;48.140;10.250;2024-03-22T09:44:47;6.20;;;4.85;;
8040;SDS011;4063;48.140;10.250;2024-03-22T09:47:16;4.55;;;3.88;;
8040;SDS011;4063;48.140;10.250;2024-03-22T09:49:42;8.00;;;4.53;;
8040;SDS011;4063;48.140;10.250;2024-03-22T09:52:11;7.30;;;4.90;;
8040;SDS011;4063;48.140;10.250;2024-03-22T09:54:38;5.28;;;4.38;;
8040;SDS011;4063;48.140;10.250;2024-03-22T09:57:04;4.80;;;4.28;;
8040;SDS011;4063;48.140;10.250;2024-03-22T09:59:32;12.23;;;7.30;;
8040;SDS011;4063;48.140;10.250;2024-03-22T10:01:58;7.13;;;4.28;;
8040;SDS011;4063;48.140;10.250;2024-03-22T10:04:25;12.27;;;8.02;;
8040;SDS011;4063;48.140;10.250;2024-03-22T10:06:51;6.18;;;4.80;;
8040;SDS011;4063;48.140;10.250;2024-03-22T10:09:17;4.45;;;3.67;;
8040;SDS011;4063;48.140;10.250;2024-03-22T10:11:43;5.65;;;3.90;;
8040;SDS011;4063;48.140;10.250;2024-03-22T10:14:09;4.10;;;3.67;;
8040;SDS011;4063;48.140;10.250;2024-03-22T10:16:36;6.43;;;4.38;;
8040;SDS011;4063;48.140;10.250;2024-03-22T10:19:02;11.48;;;7.85;;
8040;SDS011;4063;48.140;10.250;2024-03-22T10:21:28;9.27;;;6.57;;
8040;SDS011;4063;48.140;10.250;2024-03-22T10:23:54;5.93;;;4.30;;
8040;SDS011;4063;48.140;10.250;2024-03-22T10:26:20;11.50;;;7.35;;
8040;SDS011;4063;48.140;10.250;2024-03-22T10:28:46;6.00;;;5.40;;
8040;SDS011;4063;48.140;10.250;2024-03-22T10:31:12;9.35;;;6.00;;
8040;SDS011;4063;48.140;10.250;2024-03-22T10:33:40;10.05;;;4.18;;
8040;SDS011;4063;48.140;10.250;2024-03-22T10:36:06;3.47;;;2.88;;
8040;SDS011;4063;48.140;10.250;2024-03-22T10:38:33;4.85;;;3.60;;
8040;SDS011;4063;48.140;10.250;2024-03-22T10:41:02;4.75;;;3.10;;
8040;SDS011;4063;48.140;10.250;2024-03-22T10:43:28;5.57;;;3.30;;
8040;SDS011;4063;48.140;10.250;2024-03-22T10:45:55;4.28;;;3.25;;
8040;SDS011;4063;48.140;10.250;2024-03-22T10:48:22;4.78;;;3.20;;
8040;SDS011;4063;48.140;10.250;2024-03-22T10:50:50;4.40;;;3.10;;
8040;SDS011;4063;48.140;10.250;2024-03-22T10:53:18;4.78;;;3.25;;
8040;SDS011;4063;48.140;10.250;2024-03-22T10:55:46;5.35;;;3.17;;
8040;SDS011;4063;48.140;10.250;2024-03-22T10:58:17;3.55;;;3.20;;
8040;SDS011;4063;48.140;10.250;2024-03-22T11:00:43;4.38;;;3.05;;
8040;SDS011;4063;48.140;10.250;2024-03-22T11:03:09;3.97;;;2.67;;
8040;SDS011;4063;48.140;10.250;2024-03-22T11:05:45;5.05;;;3.20;;
8040;SDS011;4063;48.140;10.250;2024-03-22T11:08:11;7.18;;;3.03;;
8040;SDS011;4063;48.140;10.250;2024-03-22T11:10:38;3.80;;;2.80;;
8040;SDS011;4063;48.140;10.250;2024-03-22T11:13:04;3.65;;;3.08;;
8040;SDS011;4063;48.140;10.250;2024-03-22T11:15:32;3.25;;;2.60;;
8040;SDS011;4063;48.140;10.250;2024-03-22T11:18:00;4.68;;;3.20;;
8040;SDS011;4063;48.140;10.250;2024-03-22T11:20:29;6.32;;;3.97;;
8040;SDS011;4063;48.140;10.250;2024-03-22T11:22:56;3.40;;;3.10;;
8040;SDS011;4063;48.140;10.250;2024-03-22T11:25:22;5.40;;;3.65;;
8040;SDS011;4063;48.140;10.250;2024-03-22T11:27:48;5.72;;;3.55;;
8040;SDS011;4063;48.140;10.250;2024-03-22T11:30:15;3.45;;;2.92;;
8040;SDS011;4063;48.140;10.250;2024-03-22T11:32:41;4.68;;;4.13;;
8040;SDS011;4063;48.140;10.250;2024-03-22T11:35:09;7.60;;;3.53;;
8040;SDS011;4063;48.140;10.250;2024-03-22T11:37:36;3.70;;;3.03;;
8040;SDS011;4063;48.140;10.250;2024-03-22T11:40:02;4.55;;;2.88;;
8040;SDS011;4063;48.140;10.250;2024-03-22T11:42:30;3.33;;;3.03;;
8040;SDS011;4063;48.140;10.250;2024-03-22T11:44:56;5.88;;;3.08;;
8040;SDS011;4063;48.140;10.250;2024-03-22T11:47:23;5.88;;;3.22;;
8040;SDS011;4063;48.140;10.250;2024-03-22T11:49:49;4.97;;;4.07;;
8040;SDS011;4063;48.140;10.250;2024-03-22T11:52:15;4.30;;;3.47;;
8040;SDS011;4063;48.140;10.250;2024-03-22T11:54:41;4.25;;;2.88;;
8040;SDS011;4063;48.140;10.250;2024-03-22T11:57:08;3.00;;;2.67;;
8040;SDS011;4063;48.140;10.250;2024-03-22T11:59:34;5.80;;;2.60;;
8040;SDS011;4063;48.140;10.250;2024-03-22T12:02:01;3.58;;;2.72;;
8040;SDS011;4063;48.140;10.250;2024-03-22T12:04:26;2.58;;;2.38;;
8040;SDS011;4063;48.140;10.250;2024-03-22T12:06:52;4.28;;;2.60;;
8040;SDS011;4063;48.140;10.250;2024-03-22T12:09:18;3.03;;;2.50;;
8040;SDS011;4063;48.140;10.250;2024-03-22T12:11:44;3.83;;;2.83;;
8040;SDS011;4063;48.140;10.250;2024-03-22T12:14:10;4.18;;;2.47;;
8040;SDS011;4063;48.140;10.250;2024-03-22T12:16:36;4.22;;;2.88;;
8040;SDS011;4063;48.140;10.250;2024-03-22T12:19:02;4.40;;;3.03;;
8040;SDS011;4063;48.140;10.250;2024-03-22T12:21:28;4.05;;;3.38;;
8040;SDS011;4063;48.140;10.250;2024-03-22T12:23:55;3.00;;;2.70;;
8040;SDS011;4063;48.140;10.250;2024-03-22T12:26:21;3.53;;;2.88;;
8040;SDS011;4063;48.140;10.250;2024-03-22T12:28:47;4.72;;;3.33;;
8040;SDS011;4063;48.140;10.250;2024-03-22T12:31:13;4.55;;;2.83;;
8040;SDS011;4063;48.140;10.250;2024-03-22T12:33:39;3.65;;;2.65;;
8040;SDS011;4063;48.140;10.250;2024-03-22T12:36:05;3.85;;;2.85;;
8040;SDS011;4063;48.140;10.250;2024-03-22T12:38:31;4.35;;;2.90;;
8040;SDS011;4063;48.140;10.250;2024-03-22T12:40:57;2.85;;;2.20;;
8040;SDS011;4063;48.140;10.250;2024-03-22T12:43:23;3.15;;;2.30;;
8040;SDS011;4063;48.140;10.250;2024-03-22T12:45:49;3.67;;;2.70;;
8040;SDS011;4063;48.140;10.250;2024-03-22T12:48:15;2.63;;;2.42;;
8040;SDS011;4063;48.140;10.250;2024-03-22T12:50:41;2.75;;;2.30;;
8040;SDS011;4063;48.140;10.250;2024-03-22T12:53:07;3.13;;;2.22;;
8040;SDS011;4063;48.140;10.250;2024-03-22T12:55:33;4.68;;;2.40;;
8040;SDS011;4063;48.140;10.250;2024-03-22T12:57:59;2.63;;;2.35;;
8040;SDS011;4063;48.140;10.250;2024-03-22T13:00:25;3.10;;;2.15;;
8040;SDS011;4063;48.140;10.250;2024-03-22T13:02:51;2.90;;;2.17;;
8040;SDS011;4063;48.140;10.250;2024-03-22T13:05:17;2.30;;;2.10;;
8040;SDS011;4063;48.140;10.250;2024-03-22T13:07:43;2.78;;;2.40;;
8040;SDS011;4063;48.140;10.250;2024-03-22T13:10:09;2.70;;;2.30;;
8040;SDS011;4063;48.140;10.250;2024-03-22T13:12:35;4.30;;;2.10;;
8040;SDS011;4063;48.140;10.250;2024-03-22T13:15:01;3.15;;;1.80;;
8040;SDS011;4063;48.140;10.250;2024-03-22T13:17:27;3.00;;;1.92;;
8040;SDS011;4063;48.140;10.250;2024-03-22T13:19:53;3.92;;;1.92;;
8040;SDS011;4063;48.140;10.250;2024-03-22T13:22:19;3.47;;;3.03;;
8040;SDS011;4063;48.140;10.250;2024-03-22T13:24:45;4.68;;;1.98;;
8040;SDS011;4063;48.140;10.250;2024-03-22T13:27:12;1.98;;;1.77;;
8040;SDS011;4063;48.140;10.250;2024-03-22T13:29:41;2.22;;;1.83;;
8040;SDS011;4063;48.140;10.250;2024-03-22T13:32:07;2.85;;;1.60;;
8040;SDS011;4063;48.140;10.250;2024-03-22T13:34:39;4.68;;;1.67;;
8040;SDS011;4063;48.140;10.250;2024-03-22T13:37:05;4.97;;;2.22;;
8040;SDS011;4063;48.140;10.250;2024-03-22T13:39:31;4.40;;;2.10;;
8040;SDS011;4063;48.140;10.250;2024-03-22T13:41:57;2.30;;;1.70;;
8040;SDS011;4063;48.140;10.250;2024-03-22T13:44:23;3.58;;;1.90;;
8040;SDS011;4063;48.140;10.250;2024-03-22T13:46:50;3.08;;;1.65;;
8040;SDS011;4063;48.140;10.250;2024-03-22T13:49:17;2.30;;;1.70;;
8040;SDS011;4063;48.140;10.250;2024-03-22T13:51:43;3.58;;;1.88;;
8040;SDS011;4063;48.140;10.250;2024-03-22T13:54:09;3.30;;;2.13;;
8040;SDS011;4063;48.140;10.250;2024-03-22T13:56:35;2.60;;;1.70;;
8040;SDS011;4063;48.140;10.250;2024-03-22T13:59:03;2.50;;;1.80;;
8040;SDS011;4063;48.140;10.250;2024-03-22T14:01:30;4.03;;;1.52;;
8040;SDS011;4063;48.140;10.250;2024-03-22T14:03:56;1.63;;;1.40;;
8040;SDS011;4063;48.140;10.250;2024-03-22T14:06:22;5.10;;;1.63;;
8040;SDS011;4063;48.140;10.250;2024-03-22T14:08:48;2.30;;;1.70;;
8040;SDS011;4063;48.140;10.250;2024-03-22T14:11:14;3.15;;;1.70;;
8040;SDS011;4063;48.140;10.250;2024-03-22T14:13:40;4.18;;;1.92;;
8040;SDS011;4063;48.140;10.250;2024-03-22T14:16:06;2.70;;;1.67;;
8040;SDS011;4063;48.140;10.250;2024-03-22T14:18:33;2.72;;;1.80;;
8040;SDS011;4063;48.140;10.250;2024-03-22T14:21:00;3.38;;;2.05;;
8040;SDS011;4063;48.140;10.250;2024-03-22T14:23:26;2.58;;;1.70;;
8040;SDS011;4063;48.140;10.250;2024-03-22T14:25:54;3.78;;;1.73;;
8040;SDS011;4063;48.140;10.250;2024-03-22T14:28:20;2.92;;;1.70;;
8040;SDS011;4063;48.140;10.250;2024-03-22T14:30:46;1.95;;;1.60;;
8040;SDS011;4063;48.140;10.250;2024-03-22T14:33:12;2.67;;;1.90;;
8040;SDS011;4063;48.140;10.250;2024-03-22T14:35:38;2.60;;;1.95;;
8040;SDS011;4063;48.140;10.250;2024-03-22T14:38:04;2.78;;;1.80;;
8040;SDS011;4063;48.140;10.250;2024-03-22T14:40:30;2.13;;;1.85;;
8040;SDS011;4063;48.140;10.250;2024-03-22T14:43:01;2.33;;;1.70;;